Time;durP1;ratioP1;P1;durP2;ratioP2;P2;SDS_P1;SDS_P2;PMS_P1;PMS_P2;Temp;Humidity;BMP_temperature;BMP_pressure;BME280_temperature;BME280_humidity;BME280_pressure;Samples;Min_cycle;Max_cycle;Signal;HPM_P1;HPM_P2
2022/09/27 00:01:02;;;;;;;;;;;;;;;16.63;72.50;100040.37;1677988;85;25749;-60
2022/09/27 00:03:31;;;;;;;;;;;;;;;16.64;72.82;100034.41;1676555;85;25825;-58
2022/09/27 00:06:06;;;;;;;;;;;;;;;16.64;72.31;100028.97;1681418;84;25903;-59
2022/09/27 00:08:35;;;;;;;;;;;;;;;16.61;72.80;100027.49;1684372;85;28361;-58
2022/09/27 00:11:04;;;;;;;;;;;;;;;16.63;72.89;100021.89;1684428;85;25748;-59
2022/09/27 00:13:31;;;;;;;;;;;;;;;16.62;72.54;100017.48;1684604;85;25557;-59
2022/09/27 00:16:02;;;;;;;;;;;;;;;16.57;72.90;100021.61;1684582;85;25788;-59
2022/09/27 00:18:28;;;;;;;;;;;;;;;16.55;73.51;100016.89;1685945;85;25808;-59
2022/09/27 00:20:55;;;;;;;;;;;;;;;16.55;73.45;100014.70;1685421;85;27571;-59
2022/09/27 00:23:21;;;;;;;;;;;;;;;16.52;73.92;100011.86;1683331;85;25729;-59
2022/09/27 00:25:56;;;;;;;;;;;;;;;16.50;74.10;100009.00;1684623;85;25793;-60
2022/09/27 00:28:24;;;;;;;;;;;;;;;16.48;73.76;100002.41;1684465;85;26713;-60
2022/09/27 00:30:52;;;;;;;;;;;;;;;16.43;73.62;100002.17;1687887;84;25884;-60
2022/09/27 00:33:20;;;;;;;;;;;;;;;16.43;73.73;100002.17;1678373;85;28113;-60
2022/09/27 00:35:46;;;;;;;;;;;;;;;16.43;74.31;99996.73;1676791;85;26507;-59
2022/09/27 00:38:13;;;;;;;;;;;;;;;16.43;74.58;99994.02;1693066;83;25782;-60
2022/09/27 00:40:40;;;;;;;;;;;;;;;16.41;74.42;99983.87;1720154;83;26028;-60
2022/09/27 00:43:15;;;;;;;;;;;;;;;16.42;74.34;99986.91;1698423;83;25787;-60
2022/09/27 00:45:44;;;;;;;;;;;;;;;16.39;75.03;99983.22;1685500;83;27526;-60
2022/09/27 00:48:13;;;;;;;;;;;;;;;16.38;74.75;99978.31;1689313;84;25610;-60
2022/09/27 00:50:42;;;;;;;;;;;;;;;16.36;74.98;99975.48;1691300;84;25768;-59
2022/09/27 00:53:15;;;;;;;;;;;;;;;16.30;75.02;99968.09;1687366;85;26734;-59
2022/09/27 00:55:54;;;;;;;;;;;;;;;16.28;75.64;99964.23;1686937;85;25700;-60
2022/09/27 00:58:24;;;;;;;;;;;;;;;16.28;75.31;99963.70;1688058;85;27500;-61
2022/09/27 01:00:53;;;;;;;;;;;;;;;16.29;75.93;99968.63;1688429;85;25833;-59
2022/09/27 01:03:42;;;;;;;;;;;;;;;16.29;75.29;99956.41;1668108;84;25748;-60
2022/09/27 01:06:11;;;;;;;;;;;;;;;16.24;75.18;99955.63;1687182;84;26498;-60
2022/09/27 01:08:38;;;;;;;;;;;;;;;16.18;75.13;99950.96;1674727;85;25768;-60
2022/09/27 01:11:11;;;;;;;;;;;;;;;16.15;75.40;99950.01;1674244;85;27488;-61
2022/09/27 01:13:41;;;;;;;;;;;;;;;16.13;75.41;99960.73;1674178;85;25877;-59
2022/09/27 01:16:39;;;;;;;;;;;;;;;16.14;76.45;99961.06;1662815;85;25464;-59
2022/09/27 01:19:38;;;;;;;;;;;;;;;16.18;76.48;99961.81;1623383;85;25854;-60
2022/09/27 01:22:23;;;;;;;;;;;;;;;16.25;77.16;99960.53;1666863;85;25828;-60
2022/09/27 01:25:03;;;;;;;;;;;;;;;16.25;76.54;99959.17;1648545;86;27515;-60
2022/09/27 01:28:02;;;;;;;;;;;;;;;16.26;76.79;99949.50;1648512;86;25729;-59
2022/09/27 01:30:39;;;;;;;;;;;;;;;16.23;76.46;99951.23;1675299;83;26406;-59
2022/09/27 01:33:15;;;;;;;;;;;;;;;16.24;77.13;99947.99;1684161;85;25804;-59
2022/09/27 01:36:02;;;;;;;;;;;;;;;16.27;77.09;99946.26;1674664;85;25722;-59
2022/09/27 01:38:45;;;;;;;;;;;;;;;16.26;77.42;99926.44;1679830;83;27517;-59
2022/09/27 01:41:34;;;;;;;;;;;;;;;16.28;77.72;99919.45;1689719;84;25775;-60
2022/09/27 01:44:21;;;;;;;;;;;;;;;16.30;77.89;99917.38;1676395;84;25521;-60
2022/09/27 01:46:55;;;;;;;;;;;;;;;16.32;78.12;99909.86;1674802;85;25774;-60
2022/09/27 01:49:39;;;;;;;;;;;;;;;16.31;77.61;99910.06;1674313;85;25964;-59
2022/09/27 01:52:08;;;;;;;;;;;;;;;16.28;77.34;99918.92;1676054;85;27490;-60
2022/09/27 01:54:41;;;;;;;;;;;;;;;16.26;77.54;99921.01;1674063;85;25761;-59
2022/09/27 01:57:28;;;;;;;;;;;;;;;16.25;77.90;99920.69;1675233;85;25828;-61
2022/09/27 02:00:01;;;;;;;;;;;;;;;16.28;78.66;99907.23;1674733;85;25788;-60
2022/09/27 02:02:32;;;;;;;;;;;;;;;16.30;79.00;99902.46;1661641;85;25921;-60
2022/09/27 02:05:02;;;;;;;;;;;;;;;16.33;79.12;99906.65;1658375;86;27478;-60
2022/09/27 02:07:36;;;;;;;;;;;;;;;16.37;79.31;99911.49;1673760;85;25801;-60
2022/09/27 02:10:07;;;;;;;;;;;;;;;16.39;78.87;99912.14;1675741;85;25724;-59
2022/09/27 02:12:39;;;;;;;;;;;;;;;16.39;79.34;99914.00;1676065;85;25729;-60
2022/09/27 02:15:12;;;;;;;;;;;;;;;16.41;79.50;99909.22;1680614;85;25784;-60
2022/09/27 02:17:58;;;;;;;;;;;;;;;16.40;78.29;99908.90;1680734;85;27566;-60
2022/09/27 02:20:40;;;;;;;;;;;;;;;16.38;78.27;99906.89;1680566;85;25909;-58
2022/09/27 02:23:13;;;;;;;;;;;;;;;16.34;78.49;99895.59;1682173;85;25762;-59
2022/09/27 02:25:56;;;;;;;;;;;;;;;16.34;79.21;99896.12;1680473;85;25845;-59
2022/09/27 02:28:32;;;;;;;;;;;;;;;16.38;79.54;99898.25;1680460;85;26009;-61
2022/09/27 02:30:59;;;;;;;;;;;;;;;16.38;79.20;99896.03;1683015;84;27474;-61
2022/09/27 02:33:44;;;;;;;;;;;;;;;16.38;79.57;99896.89;1675932;85;25730;-60
2022/09/27 02:36:11;;;;;;;;;;;;;;;16.39;80.56;99895.00;1676675;85;25777;-60
2022/09/27 02:38:39;;;;;;;;;;;;;;;16.39;80.14;99895.00;1675263;84;26048;-59
2022/09/27 02:41:17;;;;;;;;;;;;;;;16.37;80.43;99888.92;1674203;84;26300;-60
2022/09/27 02:43:47;;;;;;;;;;;;;;;16.34;80.17;99885.27;1676700;85;27462;-60
2022/09/27 02:46:35;;;;;;;;;;;;;;;16.36;80.55;99881.31;1676121;85;25762;-60
2022/09/27 02:49:25;;;;;;;;;;;;;;;16.36;80.12;99873.17;1676215;85;25805;-59
2022/09/27 02:52:34;;;;;;;;;;;;;;;16.34;80.28;99874.41;1679656;85;25807;-60
2022/09/27 02:55:23;;;;;;;;;;;;;;;16.31;80.42;99866.15;1620941;88;26212;-59
2022/09/27 02:58:04;;;;;;;;;;;;;;;16.29;80.66;99864.14;1677611;85;27487;-60
2022/09/27 03:00:53;;;;;;;;;;;;;;;16.23;79.79;99863.05;1644191;85;25878;-60
2022/09/27 03:03:27;;;;;;;;;;;;;;;16.15;79.55;99848.76;1675402;85;25744;-59
2022/09/27 03:06:07;;;;;;;;;;;;;;;16.11;79.95;99855.09;1676427;84;25775;-60
2022/09/27 03:08:36;;;;;;;;;;;;;;;16.06;80.12;99850.25;1676269;85;25800;-60
2022/09/27 03:11:03;;;;;;;;;;;;;;;16.05;80.75;99851.28;1676413;85;27482;-60
2022/09/27 03:13:31;;;;;;;;;;;;;;;16.07;82.02;99853.83;1676211;85;25819;-60
2022/09/27 03:15:57;;;;;;;;;;;;;;;16.10;82.92;99850.70;1674294;85;25808;-60
2022/09/27 03:18:32;;;;;;;;;;;;;;;16.10;83.53;99847.48;1675946;85;27022;-60
2022/09/27 03:21:03;;;;;;;;;;;;;;;16.08;83.54;99837.34;1649322;85;25736;-60
2022/09/27 03:23:31;;;;;;;;;;;;;;;16.09;83.77;99834.13;1676300;85;27547;-60
2022/09/27 03:25:58;;;;;;;;;;;;;;;16.10;83.56;99838.00;1675972;85;26060;-60
2022/09/27 03:28:25;;;;;;;;;;;;;;;16.11;83.13;99838.31;1676300;85;25828;-59
2022/09/27 03:30:52;;;;;;;;;;;;;;;16.11;82.75;99834.75;1689198;83;25803;-60
2022/09/27 03:33:36;;;;;;;;;;;;;;;16.07;81.74;99842.97;1643608;86;25834;-61
2022/09/27 03:36:06;;;;;;;;;;;;;;;16.09;82.37;99835.48;1664694;85;27518;-61
2022/09/27 03:38:33;;;;;;;;;;;;;;;16.08;82.32;99827.02;1686585;83;25837;-60
2022/09/27 03:41:00;;;;;;;;;;;;;;;16.05;82.00;99822.80;1694315;84;25742;-60
2022/09/27 03:43:27;;;;;;;;;;;;;;;16.05;82.69;99819.27;1676471;85;26446;-60
2022/09/27 03:45:55;;;;;;;;;;;;;;;16.03;82.54;99811.33;1676294;85;25773;-59
2022/09/27 03:48:22;;;;;;;;;;;;;;;16.03;82.68;99801.84;1676442;85;27455;-59
2022/09/27 03:50:50;;;;;;;;;;;;;;;16.04;82.68;99803.52;1677503;85;25793;-60
2022/09/27 03:53:17;;;;;;;;;;;;;;;16.07;82.73;99803.11;1680643;85;25726;-60
2022/09/27 03:55:47;;;;;;;;;;;;;;;16.09;82.94;99800.22;1680687;85;26427;-59
2022/09/27 03:58:14;;;;;;;;;;;;;;;16.05;82.35;99796.20;1680848;85;25757;-59
2022/09/27 04:00:42;;;;;;;;;;;;;;;15.96;83.22;99796.34;1679828;85;27486;-59
2022/09/27 04:03:10;;;;;;;;;;;;;;;15.90;83.09;99797.14;1676436;85;26095;-60
2022/09/27 04:05:42;;;;;;;;;;;;;;;15.88;82.82;99792.92;1675288;85;25724;-59
2022/09/27 04:08:12;;;;;;;;;;;;;;;15.86;82.98;99789.59;1676312;85;26519;-60
2022/09/27 04:10:41;;;;;;;;;;;;;;;15.83;83.07;99786.70;1677365;85;25866;-60
2022/09/27 04:13:08;;;;;;;;;;;;;;;15.80;83.22;99789.81;1680243;85;27540;-59
2022/09/27 04:15:38;;;;;;;;;;;;;;;15.75;83.59;99781.41;1681598;85;25767;-59
2022/09/27 04:18:23;;;;;;;;;;;;;;;15.73;83.83;99780.25;1680501;85;26177;-60
2022/09/27 04:21:04;;;;;;;;;;;;;;;15.72;83.68;99770.97;1656020;85;26545;-59
2022/09/27 04:23:32;;;;;;;;;;;;;;;15.67;83.98;99771.55;1680357;85;25772;-59
2022/09/27 04:26:00;;;;;;;;;;;;;;;15.62;84.45;99766.72;1680945;85;28262;-60
2022/09/27 04:28:32;;;;;;;;;;;;;;;15.60;84.48;99770.63;1671156;85;25858;-60
2022/09/27 04:30:59;;;;;;;;;;;;;;;15.56;85.03;99770.17;1690541;83;25635;-60
2022/09/27 04:33:37;;;;;;;;;;;;;;;15.53;84.86;99773.30;1622382;88;27128;-60
2022/09/27 04:36:26;;;;;;;;;;;;;;;15.53;84.59;99773.30;1679032;85;25717;-61
2022/09/27 04:39:03;;;;;;;;;;;;;;;15.56;84.70;99775.59;1692927;83;27481;-60
2022/09/27 04:41:34;;;;;;;;;;;;;;;15.59;84.81;99777.94;1713264;83;25793;-60
2022/09/27 04:44:02;;;;;;;;;;;;;;;15.63;84.82;99779.23;1677549;83;25816;-60
2022/09/27 04:46:33;;;;;;;;;;;;;;;15.68;84.80;99781.37;1674691;85;25905;-60
2022/09/27 04:49:01;;;;;;;;;;;;;;;15.73;84.81;99782.14;1674399;85;27377;-60
2022/09/27 04:51:29;;;;;;;;;;;;;;;15.75;84.51;99790.40;1675964;85;27550;-60
2022/09/27 04:53:57;;;;;;;;;;;;;;;15.77;84.52;99785.63;1676303;85;25464;-60
2022/09/27 04:56:25;;;;;;;;;;;;;;;15.80;84.28;99781.68;1676568;85;25769;-59
2022/09/27 04:58:53;;;;;;;;;;;;;;;15.79;83.73;99774.05;1678771;84;26728;-60
2022/09/27 05:01:20;;;;;;;;;;;;;;;15.76;83.07;99776.31;1679896;85;25825;-60
2022/09/27 05:03:52;;;;;;;;;;;;;;;15.74;83.23;99781.94;1679529;85;27544;-59
2022/09/27 05:06:18;;;;;;;;;;;;;;;15.77;83.58;99786.98;1679906;85;25712;-61
2022/09/27 05:08:45;;;;;;;;;;;;;;;15.81;83.86;99790.97;1676350;85;25742;-60
2022/09/27 05:11:14;;;;;;;;;;;;;;;15.83;83.43;99784.52;1675685;85;25792;-60
2022/09/27 05:13:41;;;;;;;;;;;;;;;15.79;83.81;99786.25;1675221;85;25824;-59
2022/09/27 05:16:08;;;;;;;;;;;;;;;15.72;83.10;99772.33;1675574;85;27538;-60
2022/09/27 05:18:39;;;;;;;;;;;;;;;15.68;83.07;99772.37;1658582;85;25847;-60
2022/09/27 05:21:26;;;;;;;;;;;;;;;15.67;83.14;99776.97;1674012;84;25775;-61
2022/09/27 05:23:54;;;;;;;;;;;;;;;15.64;82.93;99776.82;1675167;85;25819;-60
2022/09/27 05:26:21;;;;;;;;;;;;;;;15.65;83.17;99778.50;1671424;85;25762;-60
2022/09/27 05:28:49;;;;;;;;;;;;;;;15.70;83.10;99781.16;1671359;85;27549;-58
2022/09/27 05:31:15;;;;;;;;;;;;;;;15.72;83.15;99778.58;1693072;83;25851;-60
2022/09/27 05:33:43;;;;;;;;;;;;;;;15.76;83.33;99776.31;1711731;83;25948;-59
2022/09/27 05:36:31;;;;;;;;;;;;;;;15.81;83.59;99771.16;1686251;84;26544;-60
2022/09/27 05:38:58;;;;;;;;;;;;;;;15.84;83.43;99780.27;1692360;83;25815;-60
2022/09/27 05:41:25;;;;;;;;;;;;;;;15.86;83.27;99781.45;1694553;84;28170;-59
2022/09/27 05:43:52;;;;;;;;;;;;;;;15.90;83.56;99782.22;1694443;84;26459;-60
2022/09/27 05:46:18;;;;;;;;;;;;;;;15.90;83.22;99789.00;1681233;84;25793;-60
2022/09/27 05:48:47;;;;;;;;;;;;;;;15.87;82.88;99786.67;1675496;85;25902;-60
2022/09/27 05:51:13;;;;;;;;;;;;;;;15.90;83.33;99780.01;1674393;85;27319;-59
2022/09/27 05:53:40;;;;;;;;;;;;;;;15.91;83.26;99785.76;1668928;84;27482;-61
2022/09/27 05:56:09;;;;;;;;;;;;;;;15.92;83.41;99790.98;1675553;85;25861;-60
2022/09/27 05:58:43;;;;;;;;;;;;;;;15.98;83.78;99798.86;1651888;85;25878;-60
2022/09/27 06:01:15;;;;;;;;;;;;;;;16.06;83.75;99808.73;1675234;85;26471;-62
2022/09/27 06:03:56;;;;;;;;;;;;;;;16.09;83.20;99807.00;1615536;85;25938;-59
2022/09/27 06:06:27;;;;;;;;;;;;;;;16.12;83.53;99802.52;1662264;85;27639;-59
2022/09/27 06:08:56;;;;;;;;;;;;;;;16.15;83.15;99798.06;1675285;84;25805;-60
2022/09/27 06:11:26;;;;;;;;;;;;;;;16.19;83.24;99796.63;1688339;83;25755;-61
2022/09/27 06:13:53;;;;;;;;;;;;;;;16.19;82.78;99786.30;1680143;84;25813;-60
2022/09/27 06:16:20;;;;;;;;;;;;;;;16.21;83.04;99787.77;1667258;85;26387;-61
2022/09/27 06:18:47;;;;;;;;;;;;;;;16.25;83.31;99786.36;1662623;84;27447;-61
2022/09/27 06:21:15;;;;;;;;;;;;;;;16.28;83.40;99794.08;1675205;84;25730;-59
2022/09/27 06:23:43;;;;;;;;;;;;;;;16.32;83.52;99790.45;1672423;85;25741;-60
2022/09/27 06:26:15;;;;;;;;;;;;;;;16.38;83.72;99792.89;1674319;85;25741;-60
2022/09/27 06:28:46;;;;;;;;;;;;;;;16.41;83.47;99799.30;1677641;85;25680;-59
2022/09/27 06:31:13;;;;;;;;;;;;;;;16.47;83.54;99790.34;1677448;84;27625;-60
2022/09/27 06:33:53;;;;;;;;;;;;;;;16.57;83.43;99795.44;1677112;85;25797;-61
2022/09/27 06:36:20;;;;;;;;;;;;;;;16.64;83.24;99792.23;1676247;85;25797;-59
2022/09/27 06:38:48;;;;;;;;;;;;;;;16.68;83.43;99801.64;1691341;83;25955;-59
2022/09/27 06:41:20;;;;;;;;;;;;;;;16.61;82.92;99795.34;1713137;83;25739;-59
2022/09/27 06:44:06;;;;;;;;;;;;;;;16.62;83.08;99796.20;1709897;83;27484;-59
2022/09/27 06:46:46;;;;;;;;;;;;;;;16.68;82.67;99789.95;1676029;84;25889;-60
2022/09/27 06:49:30;;;;;;;;;;;;;;;16.71;82.75;99787.67;1650360;85;25669;-60
2022/09/27 06:51:57;;;;;;;;;;;;;;;16.78;82.83;99789.07;1667848;84;25843;-59
2022/09/27 06:54:24;;;;;;;;;;;;;;;16.87;82.99;99787.86;1678570;84;25761;-59
2022/09/27 06:56:51;;;;;;;;;;;;;;;16.92;82.49;99783.19;1679350;84;27506;-62
2022/09/27 07:02:10;;;;;;;;;;;;;;;17.02;82.03;99781.47;1641559;84;25761;-61
2022/09/27 07:04:39;;;;;;;;;;;;;;;17.09;81.72;99782.33;1675039;84;26435;-60
2022/09/27 07:07:11;;;;;;;;;;;;;;;17.20;82.09;99780.39;1678386;84;25976;-60
2022/09/27 07:09:39;;;;;;;;;;;;;;;17.30;81.80;99779.16;1682547;85;27479;-58
2022/09/27 07:12:06;;;;;;;;;;;;;;;17.36;81.39;99772.89;1667449;84;25903;-61
2022/09/27 07:14:34;;;;;;;;;;;;;;;17.42;81.18;99768.52;1671640;85;25791;-60
2022/09/27 07:17:02;;;;;;;;;;;;;;;17.48;81.11;99772.63;1674003;85;25871;-59
2022/09/27 07:19:31;;;;;;;;;;;;;;;17.54;81.00;99766.88;1676246;84;25822;-61
2022/09/27 07:21:58;;;;;;;;;;;;;;;17.63;80.66;99764.78;1676713;84;27494;-61
2022/09/27 07:24:25;;;;;;;;;;;;;;;17.70;80.20;99768.88;1676707;84;25722;-61
2022/09/27 07:26:52;;;;;;;;;;;;;;;17.75;79.50;99779.99;1677209;84;25831;-60
2022/09/27 07:29:20;;;;;;;;;;;;;;;17.81;79.71;99779.97;1673720;84;25809;-61
2022/09/27 07:31:48;;;;;;;;;;;;;;;17.89;79.60;99777.58;1668539;85;26067;-59
2022/09/27 07:34:17;;;;;;;;;;;;;;;17.94;79.52;99780.50;1676511;85;27414;-60
2022/09/27 07:36:44;;;;;;;;;;;;;;;18.04;79.62;99783.36;1676205;85;25750;-60
2022/09/27 07:39:11;;;;;;;;;;;;;;;18.13;79.71;99781.59;1679924;85;25866;-61
2022/09/27 07:41:39;;;;;;;;;;;;;;;18.21;79.68;99783.24;1686547;83;27992;-61
2022/09/27 07:44:07;;;;;;;;;;;;;;;18.30;79.29;99776.53;1662343;85;25854;-61
2022/09/27 07:46:36;;;;;;;;;;;;;;;18.40;79.29;99776.12;1678594;84;27372;-61
2022/09/27 07:49:07;;;;;;;;;;;;;;;18.55;79.53;99772.30;1676779;85;25653;-61
2022/09/27 07:51:53;;;;;;;;;;;;;;;18.70;79.25;99774.24;1671896;85;25747;-61
2022/09/27 07:54:37;;;;;;;;;;;;;;;18.88;78.90;99770.84;1672574;85;27074;-61
2022/09/27 07:57:08;;;;;;;;;;;;;;;19.12;78.61;99763.00;1676687;85;25762;-61
2022/09/27 07:59:36;;;;;;;;;;;;;;;19.33;77.79;99757.75;1678127;84;27514;-60
2022/09/27 08:02:06;;;;;;;;;;;;;;;19.46;77.25;99758.73;1678141;85;25821;-60
2022/09/27 08:04:33;;;;;;;;;;;;;;;19.67;75.82;99761.12;1678137;85;25816;-60
2022/09/27 08:06:59;;;;;;;;;;;;;;;19.81;76.03;99757.73;1676316;85;26008;-60
2022/09/27 08:09:28;;;;;;;;;;;;;;;19.97;75.36;99755.56;1676274;85;25724;-60
2022/09/27 08:11:59;;;;;;;;;;;;;;;20.15;74.88;99755.60;1674615;85;27502;-61
2022/09/27 08:14:25;;;;;;;;;;;;;;;20.29;74.23;99755.45;1672688;84;25747;-60
2022/09/27 08:16:52;;;;;;;;;;;;;;;20.49;73.90;99760.70;1686282;85;25764;-60
2022/09/27 08:19:30;;;;;;;;;;;;;;;20.73;71.65;99758.16;1680214;85;25820;-61
2022/09/27 08:22:05;;;;;;;;;;;;;;;20.94;69.76;99752.23;1676695;85;25657;-59
2022/09/27 08:24:40;;;;;;;;;;;;;;;21.10;70.05;99745.30;1675291;83;26885;-62
2022/09/27 08:27:08;;;;;;;;;;;;;;;21.23;70.20;99737.98;1677693;85;25534;-60
2022/09/27 08:29:43;;;;;;;;;;;;;;;21.43;68.68;99737.69;1680272;84;26015;-61
2022/09/27 08:32:10;;;;;;;;;;;;;;;21.54;64.97;99736.89;1678278;84;25846;-62
2022/09/27 08:34:38;;;;;;;;;;;;;;;21.55;66.33;99734.98;1678697;85;25728;-61
2022/09/27 08:37:04;;;;;;;;;;;;;;;21.66;64.85;99730.11;1675689;85;26951;-61
2022/09/27 08:39:32;;;;;;;;;;;;;;;21.75;63.29;99723.73;1682763;85;25845;-60
2022/09/27 08:42:06;;;;;;;;;;;;;;;21.81;64.14;99720.59;1681365;85;25645;-61
2022/09/27 08:44:56;;;;;;;;;;;;;;;21.97;65.18;99719.89;1676755;85;25794;-61
2022/09/27 08:47:26;;;;;;;;;;;;;;;22.34;63.63;99721.02;1676269;85;26507;-62
2022/09/27 08:50:17;;;;;;;;;;;;;;;22.55;63.14;99714.64;1676486;85;27554;-59
2022/09/27 08:52:46;;;;;;;;;;;;;;;22.79;61.87;99715.42;1677405;84;25805;-62
2022/09/27 08:55:36;;;;;;;;;;;;;;;22.97;62.89;99711.65;1675684;85;26494;-61
2022/09/27 08:58:05;;;;;;;;;;;;;;;23.24;62.43;99719.87;1674602;84;27654;-61
2022/09/27 09:00:32;;;;;;;;;;;;;;;23.69;61.50;99721.77;1674355;85;25708;-61
2022/09/27 09:03:01;;;;;;;;;;;;;;;24.08;58.34;99725.14;1674175;85;27486;-60
2022/09/27 09:05:33;;;;;;;;;;;;;;;24.37;58.14;99728.58;1669015;85;25854;-61
2022/09/27 09:08:20;;;;;;;;;;;;;;;24.61;58.43;99729.71;1669699;84;25828;-60
2022/09/27 09:14:01;;;;;;;;;;;;;;;25.40;54.17;99725.45;1646811;84;25554;-61
2022/09/27 09:16:41;;;;;;;;;;;;;;;26.11;52.95;99720.80;1728598;83;27551;-60
2022/09/27 09:19:41;;;;;;;;;;;;;;;27.06;50.79;99724.03;1707023;83;25729;-61
2022/09/27 09:22:47;;;;;;;;;;;;;;;27.65;45.27;99706.20;1705840;84;25800;-61
2022/09/27 09:25:23;;;;;;;;;;;;;;;27.90;46.11;99696.79;1717884;83;25807;-59
2022/09/27 09:28:08;;;;;;;;;;;;;;;28.16;48.16;99692.62;1706147;83;26477;-61
2022/09/27 09:30:41;;;;;;;;;;;;;;;28.80;46.97;99679.95;1724538;81;27602;-61
2022/09/27 09:33:23;;;;;;;;;;;;;;;29.55;46.28;99668.39;1707547;83;25772;-61
2022/09/27 09:36:03;;;;;;;;;;;;;;;30.11;43.49;99675.39;1706415;83;25700;-61
2022/09/27 09:38:51;;;;;;;;;;;;;;;30.67;44.58;99677.22;1720951;82;25779;-60
2022/09/27 09:41:40;;;;;;;;;;;;;;;31.10;41.63;99669.99;1734580;82;25770;-62
2022/09/27 09:44:17;;;;;;;;;;;;;;;30.85;39.44;99670.05;1676214;83;27664;-60
2022/09/27 09:46:47;;;;;;;;;;;;;;;30.88;40.66;99659.75;1686667;83;25765;-61
2022/09/27 09:49:33;;;;;;;;;;;;;;;31.44;40.44;99657.23;1687394;84;25782;-61
2022/09/27 09:52:11;;;;;;;;;;;;;;;31.09;38.96;99661.39;1686678;84;25841;-60
2022/09/27 09:54:58;;;;;;;;;;;;;;;30.47;40.42;99664.42;1693949;83;25437;-62
2022/09/27 09:57:42;;;;;;;;;;;;;;;30.60;38.83;99663.73;1712623;82;28433;-61
2022/09/27 10:00:17;;;;;;;;;;;;;;;30.00;38.06;99661.36;1714305;82;25816;-60
2022/09/27 10:02:46;;;;;;;;;;;;;;;30.05;38.69;99664.06;1715103;83;25784;-61
2022/09/27 10:05:18;;;;;;;;;;;;;;;30.81;39.87;99662.62;1713865;82;25632;-61
2022/09/27 10:07:49;;;;;;;;;;;;;;;30.80;38.21;99664.56;1714213;80;25784;-60
2022/09/27 10:10:18;;;;;;;;;;;;;;;30.40;38.63;99660.61;1739459;82;27600;-60
2022/09/27 10:13:04;;;;;;;;;;;;;;;29.85;39.55;99659.53;1741032;82;25774;-61
2022/09/27 10:15:33;;;;;;;;;;;;;;;30.01;40.14;99658.86;1740999;82;25754;-61
2022/09/27 10:18:00;;;;;;;;;;;;;;;30.63;38.00;99653.98;1740521;82;25805;-61
2022/09/27 10:20:36;;;;;;;;;;;;;;;31.22;37.86;99660.65;1741479;82;26018;-60
2022/09/27 10:23:15;;;;;;;;;;;;;;;31.47;36.65;99649.69;1740836;82;27472;-60
2022/09/27 10:25:56;;;;;;;;;;;;;;;32.06;37.54;99648.39;1731622;82;25740;-60
2022/09/27 10:28:31;;;;;;;;;;;;;;;32.23;36.22;99654.77;1737497;82;25645;-61
2022/09/27 10:31:04;;;;;;;;;;;;;;;32.22;36.32;99642.77;1742508;81;25940;-61
2022/09/27 10:33:34;;;;;;;;;;;;;;;31.77;37.02;99644.76;1721445;82;25698;-61
2022/09/27 10:36:03;;;;;;;;;;;;;;;31.27;37.10;99648.63;1741169;81;27491;-60
2022/09/27 10:38:33;;;;;;;;;;;;;;;30.78;37.67;99643.23;1741909;81;25792;-60
2022/09/27 10:41:24;;;;;;;;;;;;;;;30.37;38.48;99636.25;1743113;82;25743;-60
2022/09/27 10:43:53;;;;;;;;;;;;;;;29.98;37.73;99631.16;1732361;82;26999;-61
2022/09/27 10:46:25;;;;;;;;;;;;;;;29.61;37.86;99629.84;1731392;82;25816;-60
2022/09/27 10:49:30;;;;;;;;;;;;;;;29.59;38.93;99630.69;1731912;83;27653;-61
2022/09/27 10:52:04;;;;;;;;;;;;;;;29.64;38.31;99633.97;1731848;82;25767;-60
2022/09/27 10:54:39;;;;;;;;;;;;;;;30.10;38.79;99628.52;1746663;81;25749;-60
2022/09/27 10:57:15;;;;;;;;;;;;;;;30.95;37.55;99637.72;1746901;81;25879;-60
2022/09/27 10:59:44;;;;;;;;;;;;;;;31.46;34.68;99624.99;1742959;82;25685;-60
2022/09/27 11:02:29;;;;;;;;;;;;;;;31.46;35.71;99620.25;1712097;82;27486;-60
2022/09/27 11:05:26;;;;;;;;;;;;;;;31.04;35.33;99622.84;1738673;82;25750;-60
2022/09/27 11:07:55;;;;;;;;;;;;;;;30.73;35.60;99621.92;1739328;82;25774;-61
2022/09/27 11:10:27;;;;;;;;;;;;;;;30.50;36.30;99619.44;1714538;82;25763;-60
2022/09/27 11:13:13;;;;;;;;;;;;;;;30.43;36.20;99621.19;1716025;82;25957;-60
2022/09/27 11:15:45;;;;;;;;;;;;;;;30.14;36.27;99619.89;1716071;82;28358;-61
2022/09/27 11:18:15;;;;;;;;;;;;;;;29.88;36.35;99620.69;1724100;82;25693;-60
2022/09/27 11:20:49;;;;;;;;;;;;;;;29.75;36.79;99621.67;1720503;80;25851;-59
2022/09/27 11:23:26;;;;;;;;;;;;;;;29.86;36.80;99615.45;1697909;83;25913;-59
2022/09/27 11:26:00;;;;;;;;;;;;;;;29.93;36.54;99620.69;1725083;82;25515;-60
2022/09/27 11:28:48;;;;;;;;;;;;;;;29.74;36.42;99610.31;1716025;82;27511;-60
2022/09/27 11:31:41;;;;;;;;;;;;;;;29.48;37.05;99611.95;1705528;83;25930;-61
2022/09/27 11:34:21;;;;;;;;;;;;;;;29.37;37.34;99610.39;1718446;81;25773;-60
2022/09/27 11:36:58;;;;;;;;;;;;;;;29.15;36.96;99610.81;1722613;82;26837;-61
2022/09/27 11:39:41;;;;;;;;;;;;;;;28.86;37.39;99605.49;1711625;82;25800;-60
2022/09/27 11:42:26;;;;;;;;;;;;;;;28.71;37.66;99602.27;1708897;83;27485;-61
2022/09/27 11:45:00;;;;;;;;;;;;;;;28.53;37.55;99609.80;1711862;82;25955;-60
2022/09/27 11:47:56;;;;;;;;;;;;;;;28.36;38.14;99608.23;1713115;83;25843;-61
2022/09/27 11:50:45;;;;;;;;;;;;;;;28.09;38.96;99597.00;1719365;82;25773;-61
2022/09/27 11:53:44;;;;;;;;;;;;;;;27.83;39.45;99600.92;1719994;82;25811;-61
2022/09/27 11:56:22;;;;;;;;;;;;;;;27.57;39.79;99597.64;1723442;81;27611;-61
2022/09/27 11:59:26;;;;;;;;;;;;;;;27.28;40.12;99597.37;1717134;82;25771;-61
2022/09/27 12:02:00;;;;;;;;;;;;;;;27.01;40.87;99597.08;1719432;82;25723;-62
2022/09/27 12:05:01;;;;;;;;;;;;;;;26.94;41.30;99595.96;1716465;81;25990;-61
2022/09/27 12:07:34;;;;;;;;;;;;;;;26.96;40.97;99597.06;1719229;81;26591;-60
2022/09/27 12:10:08;;;;;;;;;;;;;;;27.23;41.50;99600.11;1720407;81;27561;-60
2022/09/27 12:12:37;;;;;;;;;;;;;;;27.37;41.28;99592.95;1722757;81;26736;-61
2022/09/27 12:15:18;;;;;;;;;;;;;;;27.38;41.22;99590.46;1715971;83;25793;-61
2022/09/27 12:17:47;;;;;;;;;;;;;;;27.40;41.91;99595.13;1714964;82;25886;-61
2022/09/27 12:20:18;;;;;;;;;;;;;;;27.75;41.62;99585.16;1710712;83;25768;-61
2022/09/27 12:22:59;;;;;;;;;;;;;;;28.17;41.49;99585.08;1713685;82;27544;-60
2022/09/27 12:25:30;;;;;;;;;;;;;;;28.52;41.10;99582.67;1736686;82;26373;-60
2022/09/27 12:28:25;;;;;;;;;;;;;;;29.00;39.27;99572.42;1732934;81;25767;-60
2022/09/27 12:30:56;;;;;;;;;;;;;;;29.37;39.63;99574.37;1720564;81;25815;-60
2022/09/27 12:33:38;;;;;;;;;;;;;;;29.84;39.25;99571.95;1719417;81;25887;-60
2022/09/27 12:36:08;;;;;;;;;;;;;;;30.39;37.58;99567.97;1723547;82;27714;-60
2022/09/27 12:38:53;;;;;;;;;;;;;;;30.96;37.26;99559.66;1719926;81;25775;-60
2022/09/27 12:41:22;;;;;;;;;;;;;;;31.68;33.75;99561.23;1715252;82;25824;-60
2022/09/27 12:43:59;;;;;;;;;;;;;;;32.08;33.89;99564.08;1679024;84;25765;-61
2022/09/27 12:46:34;;;;;;;;;;;;;;;32.85;33.62;99569.36;1676336;84;25492;-60
2022/09/27 12:49:11;;;;;;;;;;;;;;;33.71;33.26;99566.06;1675220;85;27059;-60
2022/09/27 12:51:48;;;;;;;;;;;;;;;34.12;31.05;99566.88;1676221;85;25821;-60
2022/09/27 12:54:27;;;;;;;;;;;;;;;34.25;31.58;99567.90;1677367;84;25697;-61
2022/09/27 12:57:09;;;;;;;;;;;;;;;34.43;31.37;99568.77;1674598;84;25887;-60
2022/09/27 13:00:04;;;;;;;;;;;;;;;34.94;30.73;99576.72;1674270;85;25756;-61
2022/09/27 13:02:55;;;;;;;;;;;;;;;35.48;30.97;99570.71;1680603;85;27504;-61
2022/09/27 13:05:31;;;;;;;;;;;;;;;35.83;29.24;99562.18;1679940;85;25495;-61
2022/09/27 13:08:21;;;;;;;;;;;;;;;36.21;29.20;99558.30;1680598;85;25698;-61
2022/09/27 13:11:09;;;;;;;;;;;;;;;36.59;28.82;99553.21;1677376;84;26967;-60
2022/09/27 13:13:38;;;;;;;;;;;;;;;36.69;27.33;99558.97;1674355;85;25465;-61
2022/09/27 13:16:06;;;;;;;;;;;;;;;36.24;28.14;99554.25;1670104;85;27177;-60
2022/09/27 13:18:38;;;;;;;;;;;;;;;35.87;26.76;99547.77;1674960;85;26726;-60
2022/09/27 13:21:07;;;;;;;;;;;;;;;36.25;27.74;99544.69;1672125;85;25769;-61
2022/09/27 13:23:49;;;;;;;;;;;;;;;37.01;27.36;99541.98;1664914;86;25833;-60
2022/09/27 13:26:36;;;;;;;;;;;;;;;37.99;26.43;99540.53;1671534;85;25781;-60
2022/09/27 13:29:08;;;;;;;;;;;;;;;38.80;25.86;99542.63;1675682;85;27576;-60